sensor_id;sensor_type;location;lat;lon;timestamp;P1;durP1;ratioP1;P2;durP2;ratioP2
66919;SDS011;53831;52.090;17.026;2023-04-02T00:00:36;16.50;;;8.40;;
66919;SDS011;53831;52.090;17.026;2023-04-02T00:05:46;20.30;;;9.60;;
66919;SDS011;53831;52.090;17.026;2023-04-02T00:10:59;22.90;;;9.70;;
66919;SDS011;53831;52.090;17.026;2023-04-02T00:16:03;11.70;;;6.50;;
66919;SDS011;53831;52.090;17.026;2023-04-02T00:21:13;21.90;;;8.80;;
66919;SDS011;53831;52.090;17.026;2023-04-02T00:26:36;12.20;;;5.60;;
66919;SDS011;53831;52.090;17.026;2023-04-02T00:31:40;11.90;;;5.80;;
66919;SDS011;53831;52.090;17.026;2023-04-02T00:36:42;15.10;;;6.80;;
66919;SDS011;53831;52.090;17.026;2023-04-02T00:41:44;13.20;;;6.20;;
66919;SDS011;53831;52.090;17.026;2023-04-02T00:46:47;10.60;;;5.50;;
66919;SDS011;53831;52.090;17.026;2023-04-02T00:51:51;12.80;;;6.00;;
66919;SDS011;53831;52.090;17.026;2023-04-02T00:56:54;14.60;;;7.00;;
66919;SDS011;53831;52.090;17.026;2023-04-02T01:07:22;11.60;;;5.60;;
66919;SDS011;53831;52.090;17.026;2023-04-02T01:12:50;11.00;;;5.20;;
66919;SDS011;53831;52.090;17.026;2023-04-02T01:18:02;10.30;;;5.20;;
66919;SDS011;53831;52.090;17.026;2023-04-02T01:23:19;14.50;;;5.60;;
66919;SDS011;53831;52.090;17.026;2023-04-02T01:28:27;14.00;;;7.00;;
66919;SDS011;53831;52.090;17.026;2023-04-02T01:38:45;16.00;;;7.00;;
66919;SDS011;53831;52.090;17.026;2023-04-02T01:43:54;10.80;;;6.00;;
66919;SDS011;53831;52.090;17.026;2023-04-02T01:48:59;9.40;;;4.50;;
66919;SDS011;53831;52.090;17.026;2023-04-02T01:54:02;14.60;;;6.10;;
66919;SDS011;53831;52.090;17.026;2023-04-02T01:59:06;13.90;;;6.60;;
66919;SDS011;53831;52.090;17.026;2023-04-02T02:04:11;11.60;;;5.10;;
66919;SDS011;53831;52.090;17.026;2023-04-02T02:09:18;9.40;;;4.50;;
66919;SDS011;53831;52.090;17.026;2023-04-02T02:14:23;11.00;;;4.10;;
66919;SDS011;53831;52.090;17.026;2023-04-02T02:19:45;9.10;;;4.10;;
66919;SDS011;53831;52.090;17.026;2023-04-02T02:24:47;11.10;;;4.40;;
66919;SDS011;53831;52.090;17.026;2023-04-02T02:35:11;12.90;;;4.70;;
66919;SDS011;53831;52.090;17.026;2023-04-02T02:40:28;9.60;;;4.20;;
66919;SDS011;53831;52.090;17.026;2023-04-02T02:45:35;10.50;;;4.20;;
66919;SDS011;53831;52.090;17.026;2023-04-02T02:50:38;11.00;;;4.90;;
66919;SDS011;53831;52.090;17.026;2023-04-02T02:55:41;12.30;;;4.40;;
66919;SDS011;53831;52.090;17.026;2023-04-02T03:00:48;8.30;;;4.00;;
66919;SDS011;53831;52.090;17.026;2023-04-02T03:05:52;9.10;;;4.60;;
66919;SDS011;53831;52.090;17.026;2023-04-02T03:11:43;9.10;;;4.00;;
66919;SDS011;53831;52.090;17.026;2023-04-02T03:16:40;9.00;;;4.50;;
66919;SDS011;53831;52.090;17.026;2023-04-02T03:21:54;8.80;;;4.00;;
66919;SDS011;53831;52.090;17.026;2023-04-02T03:27:08;10.50;;;3.80;;
66919;SDS011;53831;52.090;17.026;2023-04-02T03:32:15;8.40;;;4.20;;
66919;SDS011;53831;52.090;17.026;2023-04-02T03:37:24;9.80;;;3.60;;
66919;SDS011;53831;52.090;17.026;2023-04-02T03:42:29;8.70;;;3.50;;
66919;SDS011;53831;52.090;17.026;2023-04-02T03:52:50;5.80;;;2.60;;
66919;SDS011;53831;52.090;17.026;2023-04-02T03:58:00;5.30;;;2.30;;
66919;SDS011;53831;52.090;17.026;2023-04-02T04:03:16;5.20;;;2.50;;
66919;SDS011;53831;52.090;17.026;2023-04-02T04:08:22;6.00;;;2.50;;
66919;SDS011;53831;52.090;17.026;2023-04-02T04:13:49;6.00;;;3.30;;
66919;SDS011;53831;52.090;17.026;2023-04-02T04:18:59;6.40;;;3.00;;
66919;SDS011;53831;52.090;17.026;2023-04-02T04:24:05;6.10;;;2.80;;
66919;SDS011;53831;52.090;17.026;2023-04-02T04:34:41;6.50;;;2.70;;
66919;SDS011;53831;52.090;17.026;2023-04-02T04:39:57;5.60;;;2.70;;
66919;SDS011;53831;52.090;17.026;2023-04-02T04:50:53;5.70;;;2.90;;
66919;SDS011;53831;52.090;17.026;2023-04-02T04:56:02;6.00;;;2.90;;
66919;SDS011;53831;52.090;17.026;2023-04-02T05:01:36;5.40;;;2.70;;
66919;SDS011;53831;52.090;17.026;2023-04-02T05:06:59;6.00;;;3.10;;
66919;SDS011;53831;52.090;17.026;2023-04-02T05:12:29;7.00;;;2.90;;
66919;SDS011;53831;52.090;17.026;2023-04-02T05:17:35;7.50;;;3.00;;
66919;SDS011;53831;52.090;17.026;2023-04-02T05:22:53;4.70;;;2.40;;
66919;SDS011;53831;52.090;17.026;2023-04-02T05:28:02;5.50;;;2.70;;
66919;SDS011;53831;52.090;17.026;2023-04-02T05:33:17;5.10;;;2.30;;
66919;SDS011;53831;52.090;17.026;2023-04-02T05:38:22;3.80;;;2.00;;
66919;SDS011;53831;52.090;17.026;2023-04-02T05:43:25;4.90;;;2.80;;
66919;SDS011;53831;52.090;17.026;2023-04-02T05:48:30;4.00;;;2.20;;
66919;SDS011;53831;52.090;17.026;2023-04-02T05:53:35;5.50;;;2.50;;
66919;SDS011;53831;52.090;17.026;2023-04-02T05:58:49;4.60;;;2.30;;
66919;SDS011;53831;52.090;17.026;2023-04-02T06:04:12;5.30;;;2.10;;
66919;SDS011;53831;52.090;17.026;2023-04-02T06:09:29;7.40;;;2.70;;
66919;SDS011;53831;52.090;17.026;2023-04-02T06:14:31;6.50;;;2.30;;
66919;SDS011;53831;52.090;17.026;2023-04-02T06:19:35;6.40;;;2.40;;
66919;SDS011;53831;52.090;17.026;2023-04-02T06:24:38;4.40;;;2.10;;
66919;SDS011;53831;52.090;17.026;2023-04-02T06:29:43;3.20;;;1.70;;
66919;SDS011;53831;52.090;17.026;2023-04-02T06:34:48;5.90;;;2.60;;
66919;SDS011;53831;52.090;17.026;2023-04-02T06:39:51;5.20;;;2.10;;
66919;SDS011;53831;52.090;17.026;2023-04-02T06:44:53;6.40;;;1.70;;
66919;SDS011;53831;52.090;17.026;2023-04-02T06:50:16;5.70;;;1.70;;
66919;SDS011;53831;52.090;17.026;2023-04-02T06:55:40;3.50;;;1.50;;
66919;SDS011;53831;52.090;17.026;2023-04-02T07:00:46;5.80;;;2.10;;
66919;SDS011;53831;52.090;17.026;2023-04-02T07:05:53;4.80;;;1.60;;
66919;SDS011;53831;52.090;17.026;2023-04-02T07:10:54;5.60;;;2.50;;
66919;SDS011;53831;52.090;17.026;2023-04-02T07:15:57;3.90;;;1.70;;
66919;SDS011;53831;52.090;17.026;2023-04-02T07:20:59;9.20;;;1.80;;
66919;SDS011;53831;52.090;17.026;2023-04-02T07:26:00;5.80;;;2.40;;
66919;SDS011;53831;52.090;17.026;2023-04-02T07:31:01;9.80;;;3.70;;
66919;SDS011;53831;52.090;17.026;2023-04-02T07:36:02;5.80;;;2.70;;
66919;SDS011;53831;52.090;17.026;2023-04-02T07:41:06;7.70;;;2.30;;
66919;SDS011;53831;52.090;17.026;2023-04-02T07:46:08;10.00;;;3.90;;
66919;SDS011;53831;52.090;17.026;2023-04-02T07:51:20;11.20;;;4.10;;
66919;SDS011;53831;52.090;17.026;2023-04-02T07:56:23;7.50;;;2.60;;
66919;SDS011;53831;52.090;17.026;2023-04-02T08:01:25;11.00;;;4.00;;
66919;SDS011;53831;52.090;17.026;2023-04-02T08:06:27;6.70;;;3.10;;
66919;SDS011;53831;52.090;17.026;2023-04-02T08:11:28;7.60;;;3.70;;
66919;SDS011;53831;52.090;17.026;2023-04-02T08:16:46;11.00;;;4.40;;
66919;SDS011;53831;52.090;17.026;2023-04-02T08:21:48;5.80;;;2.70;;
66919;SDS011;53831;52.090;17.026;2023-04-02T08:26:50;10.90;;;3.30;;
66919;SDS011;53831;52.090;17.026;2023-04-02T08:31:53;10.40;;;4.50;;
66919;SDS011;53831;52.090;17.026;2023-04-02T08:36:57;6.60;;;3.70;;
66919;SDS011;53831;52.090;17.026;2023-04-02T08:47:37;7.70;;;3.10;;
66919;SDS011;53831;52.090;17.026;2023-04-02T08:52:40;8.90;;;4.40;;
66919;SDS011;53831;52.090;17.026;2023-04-02T08:57:47;7.90;;;3.10;;
66919;SDS011;53831;52.090;17.026;2023-04-02T09:02:57;12.60;;;5.20;;
66919;SDS011;53831;52.090;17.026;2023-04-02T09:08:01;10.60;;;3.30;;
66919;SDS011;53831;52.090;17.026;2023-04-02T09:13:06;11.10;;;4.60;;
66919;SDS011;53831;52.090;17.026;2023-04-02T09:18:15;8.50;;;3.90;;
66919;SDS011;53831;52.090;17.026;2023-04-02T09:23:22;12.60;;;5.60;;
66919;SDS011;53831;52.090;17.026;2023-04-02T09:28:24;5.30;;;2.20;;
66919;SDS011;53831;52.090;17.026;2023-04-02T09:33:46;7.90;;;2.80;;
66919;SDS011;53831;52.090;17.026;2023-04-02T09:38:59;10.30;;;3.20;;
66919;SDS011;53831;52.090;17.026;2023-04-02T09:44:24;11.50;;;4.80;;
66919;SDS011;53831;52.090;17.026;2023-04-02T09:49:29;10.00;;;4.30;;
66919;SDS011;53831;52.090;17.026;2023-04-02T09:54:30;11.30;;;4.00;;
66919;SDS011;53831;52.090;17.026;2023-04-02T09:59:31;8.80;;;3.90;;
66919;SDS011;53831;52.090;17.026;2023-04-02T10:04:41;12.80;;;5.40;;
66919;SDS011;53831;52.090;17.026;2023-04-02T10:09:57;7.30;;;2.50;;
66919;SDS011;53831;52.090;17.026;2023-04-02T10:14:58;15.80;;;4.10;;
66919;SDS011;53831;52.090;17.026;2023-04-02T10:20:16;12.10;;;3.80;;
66919;SDS011;53831;52.090;17.026;2023-04-02T10:25:20;7.40;;;3.40;;
66919;SDS011;53831;52.090;17.026;2023-04-02T10:30:51;6.50;;;2.20;;
66919;SDS011;53831;52.090;17.026;2023-04-02T10:36:08;9.80;;;3.30;;
66919;SDS011;53831;52.090;17.026;2023-04-02T10:41:17;4.70;;;1.90;;
66919;SDS011;53831;52.090;17.026;2023-04-02T10:46:35;12.50;;;4.50;;
66919;SDS011;53831;52.090;17.026;2023-04-02T10:51:43;6.70;;;2.30;;
66919;SDS011;53831;52.090;17.026;2023-04-02T10:56:46;9.70;;;2.60;;
66919;SDS011;53831;52.090;17.026;2023-04-02T11:01:48;22.30;;;7.20;;
66919;SDS011;53831;52.090;17.026;2023-04-02T11:06:56;19.90;;;8.00;;
66919;SDS011;53831;52.090;17.026;2023-04-02T11:11:59;13.80;;;5.90;;
66919;SDS011;53831;52.090;17.026;2023-04-02T11:17:00;8.80;;;3.90;;
66919;SDS011;53831;52.090;17.026;2023-04-02T11:22:16;10.90;;;3.70;;
66919;SDS011;53831;52.090;17.026;2023-04-02T11:27:28;11.70;;;2.30;;
66919;SDS011;53831;52.090;17.026;2023-04-02T11:32:36;14.80;;;6.20;;
66919;SDS011;53831;52.090;17.026;2023-04-02T11:37:41;14.00;;;5.10;;
66919;SDS011;53831;52.090;17.026;2023-04-02T11:42:50;22.80;;;8.60;;
66919;SDS011;53831;52.090;17.026;2023-04-02T11:59:03;7.10;;;3.20;;
66919;SDS011;53831;52.090;17.026;2023-04-02T12:04:13;9.20;;;4.50;;
66919;SDS011;53831;52.090;17.026;2023-04-02T12:14:54;9.80;;;3.30;;
66919;SDS011;53831;52.090;17.026;2023-04-02T12:19:58;8.50;;;4.70;;
66919;SDS011;53831;52.090;17.026;2023-04-02T12:25:27;10.10;;;4.30;;
66919;SDS011;53831;52.090;17.026;2023-04-02T12:30:28;43.00;;;12.40;;
66919;SDS011;53831;52.090;17.026;2023-04-02T12:35:32;6.80;;;3.00;;
66919;SDS011;53831;52.090;17.026;2023-04-02T12:40:34;16.30;;;5.80;;
66919;SDS011;53831;52.090;17.026;2023-04-02T12:45:35;5.60;;;2.70;;
66919;SDS011;53831;52.090;17.026;2023-04-02T12:50:36;4.10;;;1.90;;
66919;SDS011;53831;52.090;17.026;2023-04-02T12:55:38;6.90;;;2.10;;
66919;SDS011;53831;52.090;17.026;2023-04-02T13:00:39;5.20;;;2.50;;
66919;SDS011;53831;52.090;17.026;2023-04-02T13:05:43;8.10;;;2.60;;
66919;SDS011;53831;52.090;17.026;2023-04-02T13:10:51;8.70;;;2.60;;
66919;SDS011;53831;52.090;17.026;2023-04-02T13:16:00;5.50;;;2.30;;
66919;SDS011;53831;52.090;17.026;2023-04-02T13:26:24;7.90;;;3.40;;
66919;SDS011;53831;52.090;17.026;2023-04-02T13:31:26;7.90;;;3.00;;
66919;SDS011;53831;52.090;17.026;2023-04-02T13:36:27;12.80;;;5.90;;
66919;SDS011;53831;52.090;17.026;2023-04-02T13:41:30;8.00;;;3.20;;
66919;SDS011;53831;52.090;17.026;2023-04-02T13:46:33;5.00;;;2.10;;
66919;SDS011;53831;52.090;17.026;2023-04-02T13:51:40;8.70;;;4.10;;
66919;SDS011;53831;52.090;17.026;2023-04-02T13:56:41;8.20;;;3.40;;
66919;SDS011;53831;52.090;17.026;2023-04-02T14:01:43;9.90;;;2.90;;
66919;SDS011;53831;52.090;17.026;2023-04-02T14:07:04;6.60;;;2.90;;
66919;SDS011;53831;52.090;17.026;2023-04-02T14:34:00;5.90;;;2.40;;
66919;SDS011;53831;52.090;17.026;2023-04-02T14:39:11;3.50;;;1.30;;
66919;SDS011;53831;52.090;17.026;2023-04-02T14:44:17;4.80;;;2.20;;
66919;SDS011;53831;52.090;17.026;2023-04-02T14:49:25;5.20;;;2.30;;
66919;SDS011;53831;52.090;17.026;2023-04-02T14:54:51;3.60;;;1.70;;
66919;SDS011;53831;52.090;17.026;2023-04-02T14:59:59;3.00;;;1.40;;
66919;SDS011;53831;52.090;17.026;2023-04-02T15:05:27;6.00;;;2.00;;
66919;SDS011;53831;52.090;17.026;2023-04-02T15:10:33;9.10;;;1.70;;
66919;SDS011;53831;52.090;17.026;2023-04-02T15:20:44;5.20;;;2.00;;
66919;SDS011;53831;52.090;17.026;2023-04-02T15:25:49;6.20;;;2.00;;
66919;SDS011;53831;52.090;17.026;2023-04-02T15:30:54;5.70;;;2.10;;
66919;SDS011;53831;52.090;17.026;2023-04-02T15:36:13;5.10;;;1.80;;
66919;SDS011;53831;52.090;17.026;2023-04-02T15:41:35;3.50;;;1.40;;
66919;SDS011;53831;52.090;17.026;2023-04-02T15:47:14;10.50;;;3.20;;
66919;SDS011;53831;52.090;17.026;2023-04-02T16:13:40;6.10;;;2.90;;
66919;SDS011;53831;52.090;17.026;2023-04-02T16:23:57;8.90;;;2.50;;
66919;SDS011;53831;52.090;17.026;2023-04-02T16:29:18;5.30;;;1.60;;
66919;SDS011;53831;52.090;17.026;2023-04-02T16:45:14;10.60;;;2.60;;
66919;SDS011;53831;52.090;17.026;2023-04-02T16:50:43;8.20;;;2.80;;
66919;SDS011;53831;52.090;17.026;2023-04-02T17:01:18;17.20;;;3.60;;
66919;SDS011;53831;52.090;17.026;2023-04-02T17:12:03;11.40;;;3.80;;
66919;SDS011;53831;52.090;17.026;2023-04-02T17:17:13;10.80;;;3.20;;
66919;SDS011;53831;52.090;17.026;2023-04-02T17:22:20;9.20;;;2.30;;
66919;SDS011;53831;52.090;17.026;2023-04-02T17:27:42;4.10;;;1.60;;
66919;SDS011;53831;52.090;17.026;2023-04-02T17:32:45;4.50;;;1.40;;
66919;SDS011;53831;52.090;17.026;2023-04-02T17:37:52;7.40;;;1.60;;
66919;SDS011;53831;52.090;17.026;2023-04-02T17:43:04;5.50;;;1.50;;
66919;SDS011;53831;52.090;17.026;2023-04-02T17:48:30;11.00;;;3.60;;
66919;SDS011;53831;52.090;17.026;2023-04-02T18:04:40;10.30;;;3.00;;
66919;SDS011;53831;52.090;17.026;2023-04-02T18:09:49;12.30;;;3.80;;
66919;SDS011;53831;52.090;17.026;2023-04-02T18:20:22;7.10;;;2.10;;
66919;SDS011;53831;52.090;17.026;2023-04-02T18:25:49;5.40;;;1.60;;
66919;SDS011;53831;52.090;17.026;2023-04-02T18:42:32;8.70;;;1.90;;
66919;SDS011;53831;52.090;17.026;2023-04-02T18:52:14;7.10;;;2.00;;
66919;SDS011;53831;52.090;17.026;2023-04-02T18:57:29;8.20;;;2.10;;
66919;SDS011;53831;52.090;17.026;2023-04-02T19:02:38;7.20;;;1.80;;
66919;SDS011;53831;52.090;17.026;2023-04-02T19:07:41;11.10;;;2.40;;
66919;SDS011;53831;52.090;17.026;2023-04-02T19:12:43;11.00;;;2.60;;
66919;SDS011;53831;52.090;17.026;2023-04-02T19:17:50;7.70;;;2.10;;
66919;SDS011;53831;52.090;17.026;2023-04-02T19:33:51;25.80;;;6.00;;
66919;SDS011;53831;52.090;17.026;2023-04-02T19:44:10;10.60;;;3.90;;
66919;SDS011;53831;52.090;17.026;2023-04-02T19:49:17;12.60;;;5.20;;
66919;SDS011;53831;52.090;17.026;2023-04-02T19:54:22;5.20;;;1.80;;
66919;SDS011;53831;52.090;17.026;2023-04-02T19:59:22;8.60;;;3.50;;
66919;SDS011;53831;52.090;17.026;2023-04-02T20:04:23;10.70;;;2.70;;
66919;SDS011;53831;52.090;17.026;2023-04-02T20:09:24;8.40;;;3.20;;
66919;SDS011;53831;52.090;17.026;2023-04-02T20:14:24;9.10;;;2.00;;
66919;SDS011;53831;52.090;17.026;2023-04-02T20:19:25;6.70;;;2.30;;
66919;SDS011;53831;52.090;17.026;2023-04-02T20:24:29;8.70;;;2.20;;
66919;SDS011;53831;52.090;17.026;2023-04-02T20:29:29;6.80;;;1.80;;
66919;SDS011;53831;52.090;17.026;2023-04-02T20:34:31;6.60;;;1.70;;
66919;SDS011;53831;52.090;17.026;2023-04-02T20:39:32;10.90;;;3.90;;
66919;SDS011;53831;52.090;17.026;2023-04-02T20:44:33;8.80;;;2.80;;
66919;SDS011;53831;52.090;17.026;2023-04-02T20:49:33;9.10;;;3.10;;
66919;SDS011;53831;52.090;17.026;2023-04-02T20:54:34;5.50;;;1.30;;
66919;SDS011;53831;52.090;17.026;2023-04-02T20:59:35;7.50;;;1.90;;
66919;SDS011;53831;52.090;17.026;2023-04-02T21:04:35;13.80;;;3.20;;
66919;SDS011;53831;52.090;17.026;2023-04-02T21:09:36;14.40;;;4.00;;
66919;SDS011;53831;52.090;17.026;2023-04-02T21:14:37;14.70;;;5.30;;
66919;SDS011;53831;52.090;17.026;2023-04-02T21:19:39;9.10;;;3.70;;
66919;SDS011;53831;52.090;17.026;2023-04-02T21:24:40;12.70;;;5.20;;
66919;SDS011;53831;52.090;17.026;2023-04-02T21:29:40;9.10;;;3.60;;
66919;SDS011;53831;52.090;17.026;2023-04-02T21:34:41;6.80;;;1.90;;
66919;SDS011;53831;52.090;17.026;2023-04-02T21:39:42;7.30;;;2.60;;
66919;SDS011;53831;52.090;17.026;2023-04-02T21:44:42;6.90;;;2.10;;
66919;SDS011;53831;52.090;17.026;2023-04-02T21:49:43;4.70;;;2.10;;
66919;SDS011;53831;52.090;17.026;2023-04-02T21:54:44;7.30;;;1.60;;
66919;SDS011;53831;52.090;17.026;2023-04-02T21:59:44;11.00;;;3.40;;
66919;SDS011;53831;52.090;17.026;2023-04-02T22:04:45;5.50;;;1.70;;
66919;SDS011;53831;52.090;17.026;2023-04-02T22:09:45;6.60;;;2.00;;
66919;SDS011;53831;52.090;17.026;2023-04-02T22:14:46;6.50;;;1.70;;
66919;SDS011;53831;52.090;17.026;2023-04-02T22:19:47;9.20;;;2.50;;
66919;SDS011;53831;52.090;17.026;2023-04-02T22:24:47;15.70;;;4.20;;
66919;SDS011;53831;52.090;17.026;2023-04-02T22:29:48;6.10;;;2.00;;
66919;SDS011;53831;52.090;17.026;2023-04-02T22:34:48;5.90;;;2.00;;
66919;SDS011;53831;52.090;17.026;2023-04-02T22:39:50;7.00;;;2.30;;
66919;SDS011;53831;52.090;17.026;2023-04-02T22:44:50;4.80;;;1.20;;
66919;SDS011;53831;52.090;17.026;2023-04-02T22:49:51;4.50;;;1.60;;
66919;SDS011;53831;52.090;17.026;2023-04-02T22:54:51;5.20;;;1.80;;
66919;SDS011;53831;52.090;17.026;2023-04-02T22:59:52;7.30;;;1.70;;
66919;SDS011;53831;52.090;17.026;2023-04-02T23:04:53;6.60;;;1.40;;
66919;SDS011;53831;52.090;17.026;2023-04-02T23:09:53;7.20;;;2.30;;
66919;SDS011;53831;52.090;17.026;2023-04-02T23:14:54;3.20;;;0.80;;
66919;SDS011;53831;52.090;17.026;2023-04-02T23:19:57;5.00;;;1.30;;
66919;SDS011;53831;52.090;17.026;2023-04-02T23:24:58;5.20;;;1.80;;
66919;SDS011;53831;52.090;17.026;2023-04-02T23:29:59;4.90;;;1.20;;
66919;SDS011;53831;52.090;17.026;2023-04-02T23:34:59;5.60;;;1.50;;
66919;SDS011;53831;52.090;17.026;2023-04-02T23:40:00;6.20;;;1.20;;
66919;SDS011;53831;52.090;17.026;2023-04-02T23:45:01;3.30;;;1.20;;
66919;SDS011;53831;52.090;17.026;2023-04-02T23:50:02;4.70;;;1.10;;
66919;SDS011;53831;52.090;17.026;2023-04-02T23:55:02;4.40;;;1.30;;
